Ceres, West Virginia
Current Conditions -  °F | °C
As of 5:52 PM on Tuesday 25 Nov 2014 (Local Time) from KBLF Reporting Station
Clear Clear  
Wind Chill: 47°   Ceiling: Unl
Heat Index: 47°   Visibility: 10mi
Dew Point: 20°   Wind: 0mph
Humidity: 34%   Direction: NA
Pressure: 30.07"   Gusts: NA
Location:  37.2994°N, 81.226°W
Report Text: KBLF 252252Z AUTO 00000KT 10SM CLR 08/M07 A3007 RMK AO2 SLP181 T00831067
Loading
Personal Weather Stations






























Interactive Weather Map New forecast layout! Learn more

10-Day Weather Forecast

Advertisements
Track Severe Weather on mobile